createdAt,value
2019-05-25T09:57:44.280Z,5.83
2019-05-25T10:00:14.166Z,6.95
2019-05-25T10:02:43.504Z,4.60
2019-05-25T10:05:12.838Z,5.70
2019-05-25T10:07:41.581Z,4.47
2019-05-25T10:10:10.346Z,6.92
2019-05-25T10:12:39.122Z,5.87
2019-05-25T10:15:07.975Z,5.28
2019-05-25T10:17:36.720Z,4.47
2019-05-25T10:20:08.600Z,5.58
2019-05-25T10:22:37.389Z,4.85
2019-05-25T10:25:07.426Z,3.87
2019-05-25T10:27:36.181Z,4.55
2019-05-25T10:30:06.792Z,5.17
2019-05-25T10:32:35.635Z,3.92
2019-05-25T10:35:07.724Z,3.65
2019-05-25T10:37:50.978Z,4.60
2019-05-25T10:40:19.873Z,4.97
2019-05-25T10:42:48.657Z,5.75
2019-05-25T10:45:21.279Z,5.12
2019-05-25T10:48:01.197Z,4.90
2019-05-25T10:50:30.689Z,3.57
2019-05-25T10:52:59.465Z,5.10
2019-05-25T10:55:28.340Z,5.53
2019-05-25T10:57:57.123Z,4.67
2019-05-25T11:00:25.867Z,6.22
2019-05-25T11:02:54.663Z,4.60
2019-05-25T11:05:23.420Z,4.78
2019-05-25T11:07:52.151Z,6.60
2019-05-25T11:10:21.087Z,6.23
2019-05-25T11:12:49.956Z,6.20
2019-05-25T11:15:18.755Z,9.13
2019-05-25T11:17:47.550Z,5.30
2019-05-25T11:20:16.334Z,7.05
2019-05-25T11:22:45.154Z,4.85
2019-05-25T11:25:14.033Z,4.28
2019-05-25T11:27:42.794Z,7.10
2019-05-25T14:21:38.903Z,15.47
2019-05-25T14:24:07.134Z,6.60
2019-05-25T14:26:35.393Z,7.12
2019-05-25T14:29:03.630Z,6.87
2019-05-25T14:31:45.052Z,5.37
2019-05-25T14:34:01.857Z,7.25
2019-05-25T14:36:30.107Z,6.45
2019-05-25T14:38:58.953Z,6.30
2019-05-25T14:41:27.193Z,6.42
2019-05-25T14:43:55.439Z,5.22
2019-05-25T14:46:27.968Z,5.45
2019-05-25T14:48:53.700Z,5.03
2019-05-25T14:51:21.931Z,4.15
2019-05-25T14:53:50.241Z,5.40
2019-05-25T14:56:18.551Z,5.28
2019-05-25T14:58:46.994Z,6.35
2019-05-25T15:01:15.250Z,5.53
2019-05-25T15:03:43.500Z,5.60
2019-05-25T15:06:11.749Z,5.03
2019-05-25T15:08:39.979Z,5.12
2019-05-25T15:11:08.229Z,5.20
2019-05-25T15:13:36.480Z,8.93
2019-05-25T15:16:04.801Z,4.22
2019-05-25T15:18:33.198Z,5.45
2019-05-25T15:21:02.211Z,5.67
2019-05-25T15:23:30.509Z,5.45
2019-05-25T15:25:58.748Z,6.37
2019-05-25T15:28:26.995Z,6.53
2019-05-25T15:30:55.327Z,6.30
2019-05-25T15:33:23.607Z,8.28
2019-05-25T15:35:51.847Z,9.00
2019-05-25T15:38:20.080Z,7.63
2019-05-25T15:41:07.760Z,15.63
2019-05-25T15:43:46.997Z,5.25
2019-05-25T15:46:15.334Z,6.87
2019-05-25T15:48:43.738Z,7.73
2019-05-25T15:51:11.966Z,7.20
2019-05-25T15:53:40.337Z,7.08
2019-05-25T15:56:08.600Z,5.95
2019-05-25T15:58:36.868Z,5.53
2019-05-25T16:01:05.127Z,6.22
2019-05-25T16:03:33.360Z,7.62
2019-05-25T16:06:01.648Z,7.72
2019-05-25T16:08:29.888Z,6.53
2019-05-25T16:10:58.578Z,9.27
2019-05-25T16:13:26.824Z,6.95
2019-05-25T16:15:55.048Z,8.30
2019-05-25T16:18:42.785Z,8.23
2019-05-25T16:21:11.030Z,8.70
2019-05-25T16:23:39.315Z,8.28
2019-05-25T16:26:07.595Z,13.10
2019-05-25T16:28:35.902Z,5.83
2019-05-25T16:31:04.140Z,5.62
2019-05-25T16:33:32.371Z,6.30
2019-05-25T16:36:00.732Z,6.95
2019-05-25T16:38:29.030Z,4.85
2019-05-25T16:40:58.233Z,3.98
2019-05-25T16:43:26.579Z,5.87
2019-05-25T16:45:54.796Z,4.15
2019-05-25T16:48:23.041Z,4.33
2019-05-25T16:50:51.319Z,6.00
2019-05-25T16:53:19.567Z,8.73
2019-05-25T16:55:47.814Z,5.50
2019-05-25T16:58:16.127Z,5.80
2019-05-25T17:00:44.400Z,4.33
2019-05-25T17:03:27.538Z,5.05
2019-05-25T17:05:43.875Z,6.37
2019-05-25T17:08:12.130Z,4.90
2019-05-25T17:10:40.374Z,4.08
2019-05-25T17:13:08.622Z,4.85
2019-05-25T17:15:37.893Z,4.22
2019-05-25T17:18:06.123Z,5.80
2019-05-25T17:20:38.675Z,5.45
2019-05-25T17:23:07.052Z,4.40
2019-05-25T17:25:35.377Z,5.78
2019-05-25T17:28:03.747Z,9.25
2019-05-25T17:30:41.845Z,22.20
2019-05-25T17:33:10.100Z,6.87
2019-05-25T17:35:38.532Z,11.83
2019-05-25T17:38:26.208Z,7.35
2019-05-25T17:40:54.455Z,11.68
2019-05-25T17:43:22.772Z,5.72
2019-05-25T17:45:51.001Z,7.12
2019-05-25T17:48:19.251Z,11.22
2019-05-25T17:50:47.500Z,13.20
2019-05-25T17:53:15.798Z,6.20
2019-05-25T17:55:44.072Z,5.97
2019-05-25T17:58:12.380Z,5.47
2019-05-25T18:00:46.196Z,5.42
2019-05-25T18:03:14.494Z,8.90
2019-05-25T18:05:42.735Z,12.33
2019-05-25T18:08:11.196Z,16.03
2019-05-25T18:10:51.768Z,6.17
2019-05-25T18:13:09.400Z,7.70
2019-05-25T18:15:37.675Z,8.65
2019-05-25T18:18:25.426Z,4.83
2019-05-25T18:20:53.742Z,7.00
2019-05-25T18:23:21.972Z,6.30
2019-05-25T18:25:50.242Z,5.72
2019-05-25T18:28:18.479Z,7.45
2019-05-25T18:30:46.794Z,6.58
2019-05-25T18:33:15.071Z,8.95
2019-05-25T18:35:43.321Z,4.97
2019-05-25T18:38:11.554Z,27.45
2019-05-25T18:40:39.818Z,12.05
2019-05-25T18:43:08.092Z,7.83
2019-05-25T18:45:36.357Z,8.03
2019-05-25T18:48:04.594Z,7.53
2019-05-25T18:50:32.847Z,8.18
2019-05-25T18:53:01.088Z,15.60
2019-05-25T18:55:29.371Z,8.48
2019-05-25T18:57:57.676Z,10.18
2019-05-25T19:00:25.914Z,4.95
2019-05-25T19:02:54.147Z,7.20
2019-05-25T19:05:22.675Z,8.10
2019-05-25T19:07:52.625Z,13.78
2019-05-25T19:10:20.988Z,7.97
2019-05-25T19:12:49.232Z,5.80
2019-05-25T19:15:17.542Z,6.55
2019-05-25T19:17:45.829Z,5.25
2019-05-25T19:20:19.937Z,6.83
2019-05-25T19:22:44.071Z,9.13
2019-05-25T19:25:12.378Z,6.50
2019-05-25T19:27:40.627Z,9.35
2019-05-25T19:30:09.611Z,13.72
2019-05-25T19:32:37.870Z,7.20
2019-05-25T19:35:06.227Z,10.18
2019-05-25T19:37:34.532Z,10.43
2019-05-25T19:40:08.739Z,6.87
2019-05-25T19:42:33.567Z,34.05
2019-05-25T19:45:01.974Z,9.75
2019-05-25T19:47:30.209Z,9.68
2019-05-25T19:49:58.809Z,8.80
2019-05-25T19:52:27.039Z,21.25
2019-05-25T19:54:55.984Z,6.95
2019-05-25T19:57:24.234Z,5.75
2019-05-25T19:59:52.491Z,5.90
2019-05-25T20:02:20.924Z,13.32
2019-05-25T20:04:49.246Z,44.63
2019-05-25T20:07:17.512Z,35.63
2019-05-25T20:09:45.840Z,50.95
2019-05-25T20:12:14.135Z,61.02
2019-05-25T20:15:01.908Z,44.20
2019-05-25T20:17:30.255Z,111.25
